createdAt,value
2017-12-12T00:00:49.331Z,67.20
2017-12-12T00:05:58.576Z,67.90
2017-12-12T00:11:00.061Z,67.80
2017-12-12T00:16:01.585Z,68.40
2017-12-12T00:21:03.158Z,67.30
2017-12-12T00:26:04.661Z,67.90
2017-12-12T00:31:06.208Z,67.10
2017-12-12T00:36:07.733Z,66.50
2017-12-12T00:41:09.262Z,66.60
2017-12-12T00:46:10.782Z,67.20
2017-12-12T00:51:12.324Z,66.40
2017-12-12T00:56:13.825Z,66.90
2017-12-12T01:01:15.365Z,66.10
2017-12-12T01:06:16.913Z,67.10
2017-12-12T01:11:18.452Z,67.30
2017-12-12T01:16:20.732Z,67.80
2017-12-12T01:21:22.992Z,68.10
2017-12-12T01:26:24.552Z,68.10
2017-12-12T01:31:26.080Z,68.00
2017-12-12T01:36:27.611Z,70.30
2017-12-12T01:41:29.093Z,68.60
2017-12-12T01:46:31.345Z,66.40
2017-12-12T01:51:32.865Z,66.40
2017-12-12T01:56:34.381Z,66.60
2017-12-12T02:01:35.870Z,66.90
2017-12-12T02:06:38.136Z,65.90
2017-12-12T02:11:39.668Z,66.00
2017-12-12T02:16:41.149Z,67.20
2017-12-12T02:21:42.681Z,66.30
2017-12-12T02:26:44.190Z,68.00
2017-12-12T02:31:45.709Z,69.20
2017-12-12T02:36:47.206Z,69.60
2017-12-12T02:41:48.714Z,69.80
2017-12-12T02:46:50.953Z,69.70
2017-12-12T02:51:52.422Z,69.60
2017-12-12T02:56:54.055Z,69.30
2017-12-12T03:01:56.222Z,74.30
2017-12-12T03:06:58.435Z,76.60
2017-12-12T03:12:00.006Z,76.50
2017-12-12T03:17:01.454Z,76.30
2017-12-12T03:22:03.637Z,75.00
2017-12-12T03:27:06.023Z,74.40
2017-12-12T03:32:08.286Z,72.30
2017-12-12T03:37:09.733Z,72.20
2017-12-12T03:42:11.256Z,71.30
2017-12-12T03:47:12.736Z,71.00
2017-12-12T03:52:14.261Z,69.80
2017-12-12T03:57:16.533Z,71.30
2017-12-12T04:02:18.030Z,71.20
2017-12-12T04:07:19.585Z,71.90
2017-12-12T04:12:21.869Z,72.00
2017-12-12T04:17:24.120Z,72.10
2017-12-12T04:22:25.674Z,72.10
2017-12-12T04:27:27.529Z,71.80
2017-12-12T04:32:29.420Z,71.90
2017-12-12T04:37:31.331Z,72.00
2017-12-12T04:42:33.998Z,71.20
2017-12-12T04:47:35.956Z,71.20
2017-12-12T04:52:37.877Z,71.00
2017-12-12T04:57:39.534Z,71.30
2017-12-12T05:02:41.042Z,71.00
2017-12-12T05:07:43.325Z,71.20
2017-12-12T05:12:45.613Z,70.10
2017-12-12T05:17:47.900Z,69.50
2017-12-12T05:22:50.177Z,69.90
2017-12-12T05:27:52.429Z,69.90
2017-12-12T05:32:53.925Z,69.90
2017-12-12T05:37:56.139Z,69.10
2017-12-12T05:42:57.629Z,69.00
2017-12-12T05:47:59.142Z,68.90
2017-12-12T05:53:01.394Z,69.80
2017-12-12T05:58:02.880Z,69.80
2017-12-12T06:03:04.360Z,69.10
2017-12-12T06:08:07.283Z,69.00
2017-12-12T06:13:08.754Z,69.00
2017-12-12T06:18:10.276Z,69.10
2017-12-12T06:23:11.905Z,68.80
2017-12-12T06:28:13.450Z,69.00
2017-12-12T06:33:14.982Z,69.60
2017-12-12T06:38:16.444Z,69.30
2017-12-12T06:43:18.131Z,69.10
2017-12-12T06:48:20.356Z,67.90
2017-12-12T06:53:21.956Z,67.90
2017-12-12T06:58:23.482Z,65.90
2017-12-12T07:03:25.014Z,66.60
2017-12-12T07:08:26.526Z,67.20
2017-12-12T07:13:28.072Z,66.30
2017-12-12T07:18:29.580Z,67.20
2017-12-12T07:23:31.057Z,66.00
2017-12-12T07:28:32.581Z,66.20
2017-12-12T07:33:34.069Z,66.00
2017-12-12T07:38:35.573Z,66.00
2017-12-12T07:43:37.092Z,66.30
2017-12-12T07:48:38.560Z,66.60
2017-12-12T07:53:40.093Z,66.40
2017-12-12T07:58:42.369Z,66.30
2017-12-12T08:03:44.016Z,66.20
2017-12-12T08:08:45.576Z,66.70
2017-12-12T08:13:47.102Z,66.00
2017-12-12T08:18:48.714Z,66.30
2017-12-12T08:23:50.291Z,65.80
2017-12-12T08:28:51.737Z,65.30
2017-12-12T08:33:53.205Z,65.50
2017-12-12T08:38:54.678Z,65.80
2017-12-12T08:43:56.199Z,65.50
2017-12-12T08:48:57.715Z,65.40
2017-12-12T08:53:59.264Z,65.30
2017-12-12T08:59:00.864Z,65.60
2017-12-12T09:04:02.381Z,65.90
2017-12-12T09:09:03.889Z,63.90
2017-12-12T09:14:05.418Z,64.30
2017-12-12T09:19:06.993Z,63.10
2017-12-12T09:24:08.531Z,64.40
2017-12-12T09:29:17.708Z,63.10
2017-12-12T09:34:19.250Z,63.00
2017-12-12T09:39:21.492Z,62.50
2017-12-12T09:44:23.001Z,62.40
2017-12-12T09:49:25.279Z,61.40
2017-12-12T09:54:26.744Z,61.30
2017-12-12T09:59:29.053Z,61.60
2017-12-12T10:04:30.558Z,61.40
2017-12-12T10:09:32.121Z,61.40
2017-12-12T10:14:33.658Z,61.80
2017-12-12T10:19:35.155Z,60.70
2017-12-12T10:24:36.680Z,59.60
2017-12-12T10:29:38.890Z,58.80
2017-12-12T10:34:40.395Z,58.70
2017-12-12T10:39:41.902Z,57.60
2017-12-12T10:44:43.491Z,57.50
2017-12-12T10:49:44.988Z,57.50
2017-12-12T10:54:46.712Z,58.60
2017-12-12T10:59:48.264Z,59.00
2017-12-12T11:04:50.506Z,59.70
2017-12-12T11:09:52.071Z,59.60
2017-12-12T11:14:53.592Z,60.30
2017-12-12T11:19:55.829Z,60.20
2017-12-12T11:24:57.392Z,60.20
2017-12-12T11:29:58.945Z,61.30
2017-12-12T11:40:08.852Z,60.40
2017-12-12T11:45:10.381Z,61.70
2017-12-12T11:50:11.909Z,63.40
2017-12-12T11:55:13.414Z,62.10
2017-12-12T12:00:14.921Z,62.10
2017-12-12T12:05:16.413Z,62.00
2017-12-12T12:10:18.820Z,63.20
2017-12-12T12:15:21.148Z,63.00
2017-12-12T12:20:22.649Z,62.80
2017-12-12T12:25:24.159Z,62.50
2017-12-12T12:30:25.615Z,63.70
2017-12-12T12:35:27.873Z,65.50
2017-12-12T12:40:29.362Z,65.40
2017-12-12T12:45:31.626Z,62.10
2017-12-12T12:50:33.117Z,62.10
2017-12-12T12:55:34.623Z,62.70
2017-12-12T13:00:36.125Z,63.40
2017-12-12T13:05:37.611Z,63.20
2017-12-12T13:10:39.905Z,64.60
2017-12-12T13:15:41.381Z,64.50
2017-12-12T13:20:42.918Z,65.80
2017-12-12T13:25:45.141Z,65.30
2017-12-12T13:30:46.617Z,65.30
2017-12-12T13:35:48.129Z,64.30
2017-12-12T13:40:49.698Z,64.00
2017-12-12T13:45:51.288Z,63.30
2017-12-12T13:50:53.569Z,63.60
2017-12-12T13:55:55.788Z,63.70
2017-12-12T14:01:04.346Z,63.60
2017-12-12T14:06:05.830Z,63.60
2017-12-12T14:11:07.327Z,64.20
2017-12-12T14:16:08.873Z,65.00
2017-12-12T14:21:10.412Z,63.70
2017-12-12T14:26:11.929Z,64.00
2017-12-12T14:31:14.249Z,64.30
2017-12-12T14:36:15.802Z,64.20
2017-12-12T14:41:17.277Z,63.10
2017-12-12T14:46:18.825Z,62.50
2017-12-12T14:51:20.507Z,61.50
2017-12-12T14:56:22.074Z,60.70
2017-12-12T15:01:23.592Z,61.40
2017-12-12T15:06:25.105Z,61.00
2017-12-12T15:11:26.634Z,62.00
2017-12-12T15:16:28.198Z,61.90
2017-12-12T15:21:29.692Z,61.80
2017-12-12T15:26:31.210Z,64.60
2017-12-12T15:31:32.718Z,64.10
2017-12-12T15:36:35.002Z,65.40
2017-12-12T15:41:37.255Z,65.40
2017-12-12T15:46:38.871Z,65.40
2017-12-12T15:51:40.368Z,65.50
2017-12-12T15:56:41.884Z,66.00
2017-12-12T16:01:44.111Z,67.20
2017-12-12T16:06:45.697Z,67.20
2017-12-12T16:11:47.218Z,67.20
2017-12-12T16:16:49.497Z,68.30
2017-12-12T16:21:51.799Z,68.20
2017-12-12T16:26:53.345Z,68.20
2017-12-12T16:31:55.582Z,69.00
2017-12-12T16:37:04.527Z,68.90
2017-12-12T16:47:15.175Z,69.40
2017-12-12T16:52:17.421Z,67.90
2017-12-12T16:57:18.967Z,67.80
2017-12-12T17:02:20.448Z,67.60
2017-12-12T17:07:21.942Z,68.00
2017-12-12T17:12:23.481Z,68.20
2017-12-12T17:17:25.026Z,67.90
2017-12-12T17:22:26.609Z,68.40
2017-12-12T17:27:28.179Z,67.50
2017-12-12T17:32:29.694Z,66.90
2017-12-12T17:37:31.262Z,66.30
2017-12-12T17:42:32.810Z,66.40
2017-12-12T17:47:34.394Z,66.40
2017-12-12T17:52:35.979Z,66.70
2017-12-12T17:57:38.308Z,67.30
2017-12-12T18:02:39.929Z,67.30
2017-12-12T18:07:42.163Z,68.80
2017-12-12T18:12:43.746Z,68.30
2017-12-12T18:17:45.328Z,68.60
2017-12-12T18:22:46.868Z,67.80
2017-12-12T18:27:48.405Z,68.00
2017-12-12T18:32:49.950Z,68.30
2017-12-12T18:37:51.478Z,68.50
2017-12-12T18:42:53.007Z,69.30
2017-12-12T18:47:54.568Z,69.40
2017-12-12T18:52:56.783Z,70.10
2017-12-12T18:57:58.526Z,69.90
2017-12-12T19:03:00.738Z,70.70
2017-12-12T19:08:02.227Z,70.60
2017-12-12T19:13:03.707Z,70.30
2017-12-12T19:18:05.282Z,69.10
2017-12-12T19:23:06.822Z,68.20
2017-12-12T19:28:08.342Z,68.00
2017-12-12T19:33:10.635Z,66.90
2017-12-12T19:38:12.145Z,66.90
2017-12-12T19:43:13.911Z,66.60
2017-12-12T19:48:15.444Z,66.40
2017-12-12T19:53:17.000Z,66.40
2017-12-12T19:58:19.377Z,67.40
2017-12-12T20:03:21.501Z,67.40
2017-12-12T20:08:23.013Z,68.00
2017-12-12T20:13:25.375Z,68.20
2017-12-12T20:18:26.934Z,68.10
2017-12-12T20:23:28.526Z,68.50
2017-12-12T20:28:30.060Z,68.50
2017-12-12T20:33:32.502Z,69.50
2017-12-12T20:38:33.991Z,69.80
2017-12-12T20:43:35.510Z,70.10
2017-12-12T20:48:36.982Z,70.50
2017-12-12T20:53:38.417Z,70.60
2017-12-12T20:58:39.900Z,71.20
2017-12-12T21:03:41.488Z,71.90
2017-12-12T21:08:43.006Z,72.50
2017-12-12T21:13:44.574Z,72.60
2017-12-12T21:18:46.299Z,72.60
2017-12-12T21:23:47.840Z,72.90
2017-12-12T21:28:49.402Z,73.40
2017-12-12T21:33:50.949Z,73.20
2017-12-12T21:38:52.497Z,73.50
2017-12-12T21:43:54.766Z,74.70
2017-12-12T21:48:56.313Z,74.60
2017-12-12T21:53:57.849Z,75.90
2017-12-12T21:58:59.478Z,75.20
2017-12-12T22:04:01.915Z,74.70
2017-12-12T22:09:03.651Z,74.70
2017-12-12T22:14:06.602Z,74.60
2017-12-12T22:19:08.408Z,74.50
2017-12-12T22:24:10.927Z,74.70
2017-12-12T22:29:12.758Z,74.60
2017-12-12T22:34:15.288Z,75.30
2017-12-12T22:39:17.414Z,75.50
2017-12-12T22:44:19.052Z,75.60
2017-12-12T22:49:20.724Z,76.10
2017-12-12T22:54:22.419Z,76.60
2017-12-12T22:59:24.126Z,76.90
2017-12-12T23:04:25.894Z,77.20
2017-12-12T23:09:27.416Z,78.60
2017-12-12T23:14:28.917Z,78.80
2017-12-12T23:19:30.447Z,79.20
2017-12-12T23:24:31.960Z,79.70
2017-12-12T23:29:33.505Z,79.90
2017-12-12T23:34:35.030Z,79.50
2017-12-12T23:39:36.548Z,79.60
2017-12-12T23:44:38.070Z,78.50
2017-12-12T23:49:39.610Z,78.30
2017-12-12T23:54:41.135Z,80.20
2017-12-12T23:59:42.692Z,79.20
